< < Back
Terminal Aerodrome Forecast


Current Version              Previous Versions:   1  2  3  4  5  6  7  8  9  

Terminal Aerodrome Forecast

696
FTUS42 KGSP 222006 AAF
TAFAVL
TAF AMD
KAVL 222006Z 2220/2318 18008KT 2SM -DZ BR OVC008
      TEMPO 2220/2224 5SM -DZ BR OVC010
     FM230000 17006KT 3SM -DZ BR OVC004
     FM230800 16004KT 1SM -RADZ BR OVC002
     FM231300 00000KT 1 1/2SM -RADZ BR OVC004
     FM231600 17003KT 2SM -RADZ BR OVC007=



Latest METAR

164
SAUS70 KWBC 230300 RRN
MTRAVL
METAR KAVL 230254Z 18006KT 4SM -RA BR OVC004 04/03 A2998 RMK AO2 RAB07
SLP154 P0000 60003 T00390033 50000


USA.gov is the U.S. government's official web portal to all federal, state and local government web resources and services.